Ana Sayfa
METAR-TAF:

METAR-TAF

Havaalanları :

Sanya Phoenix Uluslararası Havalimanı

Sanya, Çin

Enlem: 18-18N, Boylam: 109-24E, yükseklik: 27 m

Güncel hava durumu gözlemi

Rapor saat 17:00 UTC de 1 saat ve 11 dakika önce yapıldı.
Rüzgar kuzeydan 4 kt, kuzeybatı ve kuzey/kuzeydoğu arasında değişken
Sıcaklık 20°C
Nem 73%
Basınç 1017 hPa
Görüş mesafesi 10 km veya daha fazla
1500 ft yükseklikte parçalı bulutlu
hafif yağmur

METAR: ZJSY 101700Z 35002MPS 320V030 9999 -RA SCT015 20/15 Q1017 NOSIG

Saat: 02:11 (18:11 UTC)

Tahmin

Rapor saat 15:01 UTC de 3 saat ve 10 dakika önce yapıldı.
Ayın 10'si saat 18 UTC'den ayın 11'si saat 18 UTC'ye kadar geçerli Tahmin
Rüzgar doğudan 8 kt
Görüş mesafesi 10 km veya daha fazla
2000 ft yükseklikte az bulutlu

TAF: ZJSY 101501Z 1018/1118 08004MPS 9999 FEW020 TX26/1106Z TN17/1021Z

4.000'den fazla havaalanı için hava durumu gözlemleri ve tahminleri (METAR ve TAF raporları).

Kullanılabilir istasyonlar harita üzerinde sarı ve kırmızı noktalarla gösterilir.

İstasyonun adını görmek için fareyi noktanın üzerinde gezdirin.

Sonrasında hava gözlem ve tahminlerini görmek için tıklayın.

Haritayı değiştirmek için: yaklaştırmak için siyah artı işaretli yeşil düğmeye ve uzaklaştırmak için de eksi işaretli düğmeye hızla tıklayın; bitişik haritalar için yeşil okları kullanın.


METAR-TAF: